createdAt,value
2023-07-27T00:00:49.174Z,27.70
2023-07-27T00:03:16.871Z,27.70
2023-07-27T00:05:44.542Z,27.70
2023-07-27T00:08:12.094Z,27.70
2023-07-27T00:10:40.310Z,27.80
2023-07-27T00:13:07.892Z,27.80
2023-07-27T00:15:36.428Z,27.80
2023-07-27T00:18:04.343Z,27.80
2023-07-27T00:20:32.074Z,27.90
2023-07-27T00:23:00.746Z,27.90
2023-07-27T00:25:28.356Z,27.90
2023-07-27T00:27:55.909Z,27.90
2023-07-27T00:30:23.738Z,28.00
2023-07-27T00:32:51.462Z,28.00
2023-07-27T00:35:19.095Z,28.00
2023-07-27T00:37:47.534Z,28.10
2023-07-27T00:40:16.212Z,28.10
2023-07-27T00:42:43.796Z,28.20
2023-07-27T00:45:11.516Z,28.20
2023-07-27T00:47:40.183Z,28.30
2023-07-27T00:50:10.411Z,28.40
2023-07-27T00:52:38.106Z,28.40
2023-07-27T00:55:06.764Z,28.50
2023-07-27T00:57:34.431Z,28.60
2023-07-27T01:00:02.365Z,28.70
2023-07-27T01:02:30.216Z,28.70
2023-07-27T01:04:57.865Z,28.80
2023-07-27T01:07:26.212Z,28.90
2023-07-27T01:12:44.450Z,29.10
2023-07-27T01:15:16.480Z,29.20
2023-07-27T01:17:48.600Z,29.30
2023-07-27T02:04:15.906Z,31.40
2023-07-27T02:06:43.894Z,31.50
2023-07-27T02:09:11.580Z,31.50
2023-07-27T02:11:44.714Z,31.60
2023-07-27T02:14:12.455Z,31.60
2023-07-27T02:19:30.777Z,31.70
2023-07-27T02:21:59.036Z,31.80
2023-07-27T02:32:36.697Z,32.10
2023-07-27T02:35:05.100Z,32.20
2023-07-27T02:37:33.356Z,32.30
2023-07-27T02:45:42.299Z,32.60
2023-07-27T02:48:11.889Z,32.60
2023-07-27T02:50:40.028Z,32.70
2023-07-27T02:53:08.096Z,32.70
2023-07-27T02:55:36.203Z,32.90
2023-07-27T02:58:09.228Z,32.90
2023-07-27T03:00:36.992Z,33.00
2023-07-27T03:03:04.805Z,33.10
2023-07-27T03:05:35.554Z,33.10
2023-07-27T03:08:04.264Z,33.10
2023-07-27T03:10:32.103Z,33.00
2023-07-27T03:23:51.578Z,32.90
2023-07-27T03:37:10.079Z,33.00
2023-07-27T03:45:03.057Z,33.30
2023-07-27T03:47:32.154Z,33.30
2023-07-27T03:50:01.094Z,33.40
2023-07-27T03:52:29.752Z,33.60
2023-07-27T03:54:57.834Z,33.70
2023-07-27T03:57:25.754Z,33.80
2023-07-27T03:59:58.053Z,33.80
2023-07-27T04:02:27.223Z,33.90
2023-07-27T04:04:55.419Z,34.00
2023-07-27T04:07:23.149Z,34.00
2023-07-27T04:09:51.400Z,34.00
2023-07-27T04:12:21.458Z,34.00
2023-07-27T04:14:50.816Z,34.00
2023-07-27T04:17:18.945Z,34.10
2023-07-27T04:19:46.810Z,34.10
2023-07-27T04:22:14.553Z,34.10
2023-07-27T04:24:46.640Z,34.10
2023-07-27T04:27:14.425Z,34.20
2023-07-27T04:29:42.480Z,34.20
2023-07-27T04:32:10.287Z,34.20
2023-07-27T04:34:37.938Z,34.20
2023-07-27T04:37:05.833Z,34.20
2023-07-27T04:39:33.554Z,34.20
2023-07-27T04:47:22.068Z,34.20
2023-07-27T04:49:49.741Z,34.10
2023-07-27T04:52:17.400Z,34.00
2023-07-27T04:54:45.949Z,33.90
2023-07-27T04:57:13.605Z,33.80
2023-07-27T04:59:41.278Z,33.70
2023-07-27T05:02:08.912Z,33.60
2023-07-27T05:23:56.023Z,33.50
2023-07-27T05:26:25.798Z,33.50
2023-07-27T05:28:53.438Z,33.60
2023-07-27T05:34:07.959Z,33.80
2023-07-27T05:36:35.940Z,33.90
2023-07-27T05:39:05.378Z,34.00
2023-07-27T05:41:33.471Z,34.10
2023-07-27T05:54:53.227Z,34.40
2023-07-27T05:57:21.144Z,34.30
2023-07-27T06:02:24.830Z,34.30
2023-07-27T06:04:52.662Z,34.20
2023-07-27T06:07:20.638Z,34.20
2023-07-27T06:09:48.318Z,34.30
2023-07-27T06:12:15.973Z,34.30
2023-07-27T06:14:45.474Z,34.30
2023-07-27T06:17:13.205Z,34.40
2023-07-27T06:19:40.856Z,34.40
2023-07-27T06:22:09.406Z,34.50
2023-07-27T06:35:38.974Z,34.50
2023-07-27T06:40:49.002Z,34.50
2023-07-27T06:43:16.614Z,34.60
2023-07-27T06:45:44.336Z,34.60
2023-07-27T06:48:12.364Z,34.50
2023-07-27T06:50:44.327Z,34.60
2023-07-27T06:53:13.342Z,34.70
2023-07-27T06:55:43.109Z,34.70
2023-07-27T06:58:26.925Z,34.70
2023-07-27T07:07:02.948Z,34.70
2023-07-27T07:12:10.184Z,34.70
2023-07-27T07:14:38.491Z,34.70
2023-07-27T07:17:06.511Z,34.70
2023-07-27T07:19:34.429Z,34.70
2023-07-27T07:22:05.625Z,34.70
2023-07-27T07:24:34.797Z,34.70
2023-07-27T07:48:55.567Z,34.40
2023-07-27T07:51:23.305Z,34.50
2023-07-27T07:53:50.983Z,34.50
2023-07-27T07:56:19.775Z,34.60
2023-07-27T07:58:48.379Z,34.60
2023-07-27T08:01:16.093Z,34.70
2023-07-27T08:03:44.379Z,34.70
2023-07-27T08:06:15.337Z,34.90
2023-07-27T08:08:43.032Z,34.90
2023-07-27T08:11:13.612Z,35.00
2023-07-27T08:13:41.869Z,34.90
2023-07-27T08:16:09.723Z,35.00
2023-07-27T08:18:38.341Z,35.00
2023-07-27T08:21:08.177Z,34.90
2023-07-27T08:23:35.998Z,34.90
2023-07-27T08:42:36.206Z,34.70
2023-07-27T08:45:04.524Z,34.60
2023-07-27T08:47:32.448Z,34.60
2023-07-27T08:50:00.233Z,34.50
2023-07-27T08:52:28.772Z,34.40
2023-07-27T08:54:57.374Z,34.40
2023-07-27T08:57:27.725Z,34.40
2023-07-27T08:59:56.424Z,34.40
2023-07-27T09:05:15.704Z,34.40
2023-07-27T09:07:44.379Z,34.40
2023-07-27T09:10:12.172Z,34.30
2023-07-27T09:12:40.057Z,34.30
2023-07-27T09:15:13.899Z,34.30
2023-07-27T09:17:41.913Z,34.20
2023-07-27T09:20:14.185Z,34.20
2023-07-27T09:22:43.896Z,34.10
2023-07-27T09:25:11.502Z,34.20
2023-07-27T09:33:11.535Z,34.20
2023-07-27T09:35:42.945Z,34.20
2023-07-27T09:38:14.603Z,34.20
2023-07-27T09:40:42.577Z,34.10
2023-07-27T09:43:10.260Z,34.10
2023-07-27T09:45:40.373Z,34.10
2023-07-27T10:07:22.218Z,34.20
2023-07-27T10:39:17.818Z,33.30
2023-07-27T10:42:08.771Z,33.20
2023-07-27T10:44:50.205Z,33.20
2023-07-27T10:47:25.049Z,33.10
2023-07-27T10:49:54.746Z,33.00
2023-07-27T10:52:23.484Z,33.00
2023-07-27T10:54:52.621Z,32.90
2023-07-27T10:57:21.178Z,32.80
2023-07-27T10:59:50.780Z,32.80
2023-07-27T11:18:42.682Z,32.40
2023-07-27T11:21:10.492Z,32.40
2023-07-27T11:23:49.360Z,32.40
2023-07-27T11:26:17.876Z,32.30
2023-07-27T11:28:45.486Z,32.20
2023-07-27T11:31:18.613Z,32.20
2023-07-27T11:33:46.250Z,32.20
2023-07-27T11:36:13.906Z,32.10
2023-07-27T11:38:42.522Z,32.10
2023-07-27T11:41:41.185Z,32.00
2023-07-27T11:55:02.533Z,31.80
2023-07-27T11:57:32.041Z,31.70
2023-07-27T12:00:01.088Z,31.70
2023-07-27T12:02:31.794Z,31.60
2023-07-27T12:05:01.022Z,31.60
2023-07-27T12:08:07.122Z,31.60
2023-07-27T12:10:30.669Z,31.50
2023-07-27T12:15:35.362Z,31.50
2023-07-27T12:18:04.987Z,31.40
2023-07-27T13:15:30.919Z,31.00
2023-07-27T13:18:02.555Z,31.00
2023-07-27T13:20:33.435Z,30.90
2023-07-27T13:23:01.629Z,30.90
2023-07-27T13:25:29.222Z,30.90
2023-07-27T13:27:56.836Z,30.90
2023-07-27T13:30:24.906Z,30.90
2023-07-27T13:32:52.652Z,30.90
2023-07-27T13:35:21.256Z,30.80
2023-07-27T13:37:49.674Z,30.80
2023-07-27T13:40:17.243Z,30.80
2023-07-27T13:42:45.008Z,30.80
2023-07-27T13:45:12.622Z,30.80
2023-07-27T13:47:50.143Z,30.80
2023-07-27T13:50:25.905Z,30.70
2023-07-27T13:52:53.496Z,30.80
2023-07-27T13:55:21.524Z,30.70
2023-07-27T13:57:49.592Z,30.70
2023-07-27T14:00:18.064Z,30.70
2023-07-27T14:02:48.294Z,30.70
2023-07-27T14:05:16.937Z,30.70
2023-07-27T14:07:44.757Z,30.70
2023-07-27T14:10:14.132Z,30.70
2023-07-27T14:12:42.580Z,30.70
2023-07-27T14:15:10.468Z,30.60
2023-07-27T14:17:39.025Z,30.60
2023-07-27T14:20:07.028Z,30.70
2023-07-27T14:22:37.659Z,30.60
2023-07-27T14:25:05.382Z,30.60
2023-07-27T14:46:36.862Z,30.50
2023-07-27T14:49:04.634Z,30.50
2023-07-27T14:51:32.556Z,30.50
2023-07-27T14:54:00.898Z,30.50
2023-07-27T14:56:29.188Z,30.50
2023-07-27T14:59:07.460Z,30.40
2023-07-27T15:06:52.530Z,30.40
2023-07-27T15:14:51.663Z,30.40
2023-07-27T15:17:19.227Z,30.30
2023-07-27T15:19:47.930Z,30.30
2023-07-27T15:22:16.365Z,30.30
2023-07-27T15:24:44.182Z,30.30
2023-07-27T15:27:11.810Z,30.30
2023-07-27T15:29:40.692Z,30.20
2023-07-27T15:32:08.791Z,30.20
2023-07-27T15:37:12.731Z,30.20
2023-07-27T15:39:40.755Z,30.20
2023-07-27T15:42:08.504Z,30.10
2023-07-27T15:44:36.069Z,30.20
2023-07-27T15:47:03.758Z,30.10
2023-07-27T15:49:31.384Z,30.10
2023-07-27T15:51:59.010Z,30.10
2023-07-27T15:54:26.649Z,30.10
2023-07-27T15:56:55.095Z,30.10
2023-07-27T15:59:24.115Z,30.10
2023-07-27T16:01:51.679Z,30.10
2023-07-27T16:04:20.217Z,30.10
2023-07-27T16:06:48.599Z,30.10
2023-07-27T16:09:18.444Z,30.00
2023-07-27T16:11:46.866Z,30.00
2023-07-27T16:14:14.574Z,30.00
2023-07-27T16:16:42.902Z,30.00
2023-07-27T16:19:10.499Z,30.00
2023-07-27T16:27:10.909Z,30.00
2023-07-27T16:29:39.265Z,30.00
2023-07-27T16:32:07.908Z,30.00
2023-07-27T16:34:35.535Z,30.00
2023-07-27T16:37:03.097Z,30.00
2023-07-27T16:39:31.690Z,30.00
2023-07-27T16:42:01.038Z,30.00
2023-07-27T18:15:16.472Z,29.70
2023-07-27T18:17:44.176Z,29.70
2023-07-27T18:20:12.091Z,29.70
2023-07-27T18:22:41.067Z,29.70
2023-07-27T18:25:10.342Z,29.60
2023-07-27T18:27:37.953Z,29.60
2023-07-27T18:30:05.972Z,29.60
2023-07-27T19:40:22.712Z,29.30
2023-07-27T19:42:50.332Z,29.30
2023-07-27T19:45:18.936Z,29.30
2023-07-27T19:47:46.560Z,29.30
2023-07-27T19:50:16.050Z,29.20
2023-07-27T19:52:44.482Z,29.20
2023-07-27T19:55:13.201Z,29.20
2023-07-27T19:57:40.825Z,29.20
2023-07-27T20:00:11.120Z,29.20
2023-07-27T20:02:38.859Z,29.20
2023-07-27T20:05:06.663Z,29.10
2023-07-27T20:07:34.310Z,29.20
2023-07-27T20:10:01.997Z,29.10
2023-07-27T20:12:31.188Z,29.10
2023-07-27T20:14:58.849Z,29.10
2023-07-27T20:17:26.421Z,29.10
2023-07-27T20:19:54.345Z,29.10
2023-07-27T20:22:21.920Z,29.10
2023-07-27T20:24:50.247Z,29.00
2023-07-27T20:27:17.828Z,29.00
2023-07-27T21:46:47.954Z,28.50
2023-07-27T21:49:15.732Z,28.60
2023-07-27T21:51:43.405Z,28.50
2023-07-27T21:54:10.994Z,28.60
2023-07-27T21:56:38.566Z,28.50
2023-07-27T21:59:06.185Z,28.50
2023-07-27T22:01:34.106Z,28.50
2023-07-27T22:04:01.670Z,28.50
2023-07-27T22:06:29.224Z,28.50
2023-07-27T22:08:56.857Z,28.50
2023-07-27T22:11:24.411Z,28.40
2023-07-27T22:13:52.243Z,28.50
2023-07-27T22:16:20.306Z,28.40
2023-07-27T22:18:48.696Z,28.40
2023-07-27T22:21:16.350Z,28.40
2023-07-27T22:23:43.930Z,28.40
2023-07-27T22:26:11.543Z,28.40
2023-07-27T22:28:39.135Z,28.40
2023-07-27T22:31:07.906Z,28.40
2023-07-27T22:33:35.788Z,28.40
2023-07-27T22:36:03.371Z,28.40
2023-07-27T22:38:30.924Z,28.40
2023-07-27T22:40:59.544Z,28.40
2023-07-27T22:43:27.330Z,28.40
2023-07-27T23:13:19.043Z,28.30
2023-07-27T23:15:46.737Z,28.20
2023-07-27T23:18:17.452Z,28.30
2023-07-27T23:20:45.210Z,28.20
2023-07-27T23:23:12.796Z,28.20
2023-07-27T23:25:40.527Z,28.20
2023-07-27T23:28:08.414Z,28.20
2023-07-27T23:30:36.451Z,28.20
2023-07-27T23:33:04.235Z,28.30
2023-07-27T23:35:34.582Z,28.30
2023-07-27T23:38:03.022Z,28.30
2023-07-27T23:40:31.430Z,28.30
